Have a Safe July 4th! 

Flight Track Log - Related Links

Times and Time Zones

All times are in EDT time to prevent confusion due to time zone crossing. See the AAL1459 flight status page for this flight to view local times or setup timezone preferences in your user account.

Time Position Orientation Groundspeed Altitude Reporting Facility
EDT Latitude Longitude Course Direction KTS MPH feet Rate Location/Type
Sat 06:21:52 PM 41.9940 -87.9380 310° West 174 200 1,400  Level FlightAware ADS-B
Sat 06:22:07 PM 42.0000 -87.9520 300° West 169 194 2,200 1,867 Climbing FlightAware ADS-B
Sat 06:22:37 PM 42.0090 -87.9860 290° West 213 245 2,800 1,527 Climbing FlightAware ADS-B
Sat 06:23:02 PM 42.0160 -88.0130 289° West 228 262 3,600 2,533 Climbing FlightAware ADS-B
Sat 06:23:22 PM 42.0200 -88.0440 280° West 232 267 4,700 3,100 Climbing FlightAware ADS-B
Sat 06:24:02 PM 42.0180 -88.1010 267° West 238 274 6,700 3,360 Climbing FlightAware ADS-B
Sat 06:24:12 PM 42.0170 -88.1200 266° West 235 270 7,500 4,800 Climbing FlightAware ADS-B
Sat 06:24:27 PM 42.0150 -88.1440 264° West 230 265 8,700 3,600 Climbing FlightAware ADS-B
Sat 06:24:47 PM 42.0140 -88.1680 267° West 223 257 9,600 2,057 Climbing FlightAware ADS-B
Sat 06:25:37 PM 42.0190 -88.2430 275° West 264 304 11,100 1,642 Climbing FlightAware ADS-B
Sat 06:26:22 PM 42.0260 -88.3240 277° West 309 356 12,200 2,400 Climbing FlightAware ADS-B
Sat 06:27:02 PM 42.0340 -88.4030 278° West 306 352 14,500 3,388 Climbing FlightAware ADS-B
Sat 06:27:47 PM 42.0410 -88.4870 276° West 299 344 17,000 2,753 Climbing FlightAware ADS-B
Sat 06:28:27 PM 42.0470 -88.5620 276° West 309 356 18,400 1,875 Climbing FlightAware ADS-B
Sat 06:29:07 PM 42.0550 -88.6410 278° West 330 380 19,500 1,765 Climbing FlightAware ADS-B
Sat 06:29:52 PM 42.0630 -88.7340 277° West 344 396 20,900 1,906 Climbing FlightAware ADS-B
Sat 06:30:32 PM 42.0710 -88.8110 278° West 348 400 22,200 1,950 Climbing FlightAware ADS-B
Sat 06:31:12 PM 42.0780 -88.8970 276° West 352 405 23,500 1,860 Climbing FlightAware ADS-B
Sat 06:32:12 PM 42.0880 -89.0360 276° West 359 413 25,300 1,740 Climbing FlightAware ADS-B
Sat 06:32:52 PM 42.0960 -89.1230 277° West 364 419 26,400 1,725 Climbing FlightAware ADS-B
Sat 06:33:32 PM 42.1030 -89.2200 276° West 363 418 27,600 1,835 Climbing FlightAware ADS-B
Sat 06:34:17 PM 42.1090 -89.3190 275° West 359 413 29,000 1,694 Climbing FlightAware ADS-B
Sat 06:34:57 PM 42.1140 -89.4070 274° West 358 412 30,000 1,553 Climbing FlightAware ADS-B
Sat 06:35:42 PM 42.1200 -89.5040 275° West 352 405 31,200 1,500 Climbing FlightAware ADS-B
Sat 06:36:17 PM 42.1250 -89.5810 275° West 353 406 32,000 1,050 Climbing FlightAware ADS-B
Sat 06:37:02 PM 42.1300 -89.6750 274° West 359 413 32,600 867 Climbing FlightAware ADS-B
Sat 06:37:47 PM 42.1360 -89.7790 274° West 363 418 33,300 918 Climbing FlightAware ADS-B
Sat 06:38:27 PM 42.1340 -89.8700 268° West 370 426 33,900 675 Climbing FlightAware ADS-B
Sat 06:39:07 PM 42.1310 -89.9660 268° West 379 436 34,200 560 Climbing FlightAware ADS-B
Sat 06:39:42 PM 42.1290 -90.0480 268° West 384 442 34,600 635 Climbing FlightAware ADS-B
Sat 06:40:32 PM 42.1250 -90.1680 267° West 388 447 35,100 667 Climbing FlightAware ADS-B
Sat 06:41:12 PM 42.1210 -90.2670 267° West 391 450 35,600 675 Climbing FlightAware ADS-B
Sat 06:41:52 PM 42.1180 -90.3640 268° West 388 447 36,000 267 Climbing FlightAware ADS-B
Sat 06:42:42 PM 42.1140 -90.4860 268° West 387 445 36,000  Level FlightAware ADS-B
Sat 06:43:22 PM 42.1100 -90.5790 267° West 387 445 36,000  Level FlightAware ADS-B
Sat 06:44:02 PM 42.1070 -90.6690 267° West 386 444 36,000  Level FlightAware ADS-B
Sat 06:44:47 PM 42.1020 -90.7780 266° West 385 443 36,000  Level FlightAware ADS-B
Sat 06:45:22 PM 42.0990 -90.8670 267° West 385 443 36,000  Level FlightAware ADS-B
Sat 06:46:12 PM 42.1010 -90.9870 271° West 382 440 36,000  Level FlightAware ADS-B
Sat 06:46:52 PM 42.1160 -91.0800 282° West 383 441 36,000  Level FlightAware ADS-B
Sat 06:47:32 PM 42.1310 -91.1670 283° West 385 443 36,000  Level FlightAware ADS-B
Sat 06:48:12 PM 42.1470 -91.2660 282° West 387 445 36,000  Level FlightAware ADS-B
Sat 06:48:57 PM 42.1650 -91.3700 283° West 388 447 36,000  Level FlightAware ADS-B
Sat 06:49:42 PM 42.1830 -91.4760 283° West 390 449 36,000  Level FlightAware ADS-B
Sat 06:50:22 PM 42.1980 -91.5680 282° West 391 450 36,000  Level FlightAware ADS-B
Sat 06:50:57 PM 42.2110 -91.6470 283° West 392 451 36,000  Level FlightAware ADS-B
Sat 06:51:47 PM 42.2300 -91.7690 282° West 393 452 36,000  Level FlightAware ADS-B
Sat 06:52:27 PM 42.2450 -91.8560 283° West 392 451 36,000  Level FlightAware ADS-B
Sat 06:53:12 PM 42.2640 -91.9760 282° West 391 450 36,000  Level FlightAware ADS-B
Sat 06:53:47 PM 42.2760 -92.0520 282° West 391 450 36,000  Level FlightAware ADS-B
Sat 06:54:27 PM 42.2920 -92.1510 282° West 390 449 36,000  Level FlightAware ADS-B
Sat 06:55:17 PM 42.3110 -92.2740 282° West 389 448 36,000  Level FlightAware ADS-B
Sat 06:55:57 PM 42.3250 -92.3630 282° West 390 449 36,000  Level FlightAware ADS-B
Sat 06:56:32 PM 42.3390 -92.4480 283° West 392 451 36,000  Level FlightAware ADS-B
Sat 06:57:22 PM 42.3580 -92.5700 282° West 394 453 36,000  Level FlightAware ADS-B
Sat 06:58:02 PM 42.3720 -92.6600 282° West 396 456 36,000  Level FlightAware ADS-B
Sat 06:58:47 PM 42.3880 -92.7660 282° West 36,000  Level FlightAware ADS-B
Sat 06:59:27 PM 42.4040 -92.8710 282° West 398 458 36,000  Level FlightAware ADS-B
Sat 07:00:12 PM 42.4210 -92.9820 282° West 393 452 36,000  Level FlightAware ADS-B
Sat 07:00:47 PM 42.4320 -93.0620 281° West 393 452 36,000  Level FlightAware ADS-B
Sat 07:01:32 PM 42.4480 -93.1660 282° West 389 448 36,000  Level FlightAware ADS-B
Sat 07:02:27 PM 42.4670 -93.2940 281° West 390 449 36,000  Level FlightAware ADS-B
Sat 07:03:07 PM 42.4790 -93.3760 281° West 390 449 36,000  Level FlightAware ADS-B
Sat 07:03:47 PM 42.4910 -93.4570 281° West 390 449 36,000  Level FlightAware ADS-B
Sat 07:04:37 PM 42.5050 -93.5590 281° West 390 449 36,000  Level FlightAware ADS-B
Sat 07:05:17 PM 42.5170 -93.6410 281° West 390 449 36,000  Level FlightAware ADS-B
Sat 07:05:57 PM 42.5290 -93.7230 281° West 390 449 36,000  Level FlightAware ADS-B
Sat 07:06:37 PM 42.5400 -93.8050 280° West 390 449 36,000  Level FlightAware ADS-B
Sat 07:07:27 PM 42.5550 -93.9070 281° West 390 449 36,000  Level FlightAware ADS-B
Sat 07:07:57 PM 42.5640 -93.9680 281° West 390 449 36,000  Level FlightAware ADS-B
Sat 07:08:47 PM 42.5780 -94.0700 281° West 390 449 36,000  Level FlightAware ADS-B
Sat 07:09:27 PM 42.5900 -94.1520 281° West 390 449 36,000  Level FlightAware ADS-B
Sat 07:10:07 PM 42.6020 -94.2340 281° West 390 449 36,000  Level FlightAware ADS-B
Sat 07:10:57 PM 42.6160 -94.3360 281° West 390 449 36,000  Level FlightAware ADS-B
Sat 07:11:37 PM 42.6280 -94.4180 281° West 390 449 36,000  Level FlightAware ADS-B
Sat 07:12:24 PM 42.6511 -94.7300 281° West 383 441 36,000  Level Minneapolis Center
Sat 07:13:25 PM 42.6644 -94.8733 277° West 383 441 36,000  Level Minneapolis Center
Sat 07:14:27 PM 42.6764 -95.0161 277° West 383 441 36,000  Level Minneapolis Center
Sat 07:15:28 PM 42.6883 -95.1589 277° West 382 440 36,000  Level Minneapolis Center
Sat 07:16:29 PM 42.7011 -95.3017 277° West 381 438 36,000  Level Minneapolis Center
Sat 07:17:31 PM 42.7128 -95.4450 276° West 382 440 36,000  Level Minneapolis Center
Sat 07:18:32 PM 42.7258 -95.6028 276° West 377 434 36,000  Level Minneapolis Center
Sat 07:19:33 PM 42.7378 -95.7494 276° West 386 444 36,000  Level Minneapolis Center
Sat 07:20:34 PM 42.7494 -95.8956 276° West 388 447 36,000  Level Minneapolis Center
Sat 07:21:36 PM 42.7611 -96.0411 276° West 389 448 36,000  Level Minneapolis Center
Sat 07:22:37 PM 42.7725 -96.1844 276° West 383 441 36,000  Level Minneapolis Center
Sat 07:23:38 PM 42.7831 -96.3308 276° West 385 443 36,000  Level Minneapolis Center
Sat 07:24:39 PM 42.7939 -96.4731 276° West 380 437 36,000  Level Minneapolis Center
Sat 07:25:40 PM 42.8044 -96.6197 276° West 386 444 36,000  Level Minneapolis Center
Sat 07:26:42 PM 42.8147 -96.7644 276° West 385 443 36,000  Level Minneapolis Center
Sat 07:27:43 PM 42.8272 -96.9358 276° West 381 438 36,000  Level Minneapolis Center
Sat 07:28:44 PM 42.8367 -97.0761 275° West 375 432 36,000  Level Minneapolis Center
Sat 07:29:45 PM 42.8464 -97.2178 275° West 376 433 36,000  Level Minneapolis Center
Sat 07:30:46 PM 42.8558 -97.3592 275° West 375 432 36,000  Level Minneapolis Center
Sat 07:31:47 PM 42.8650 -97.5014 275° West 376 433 36,000  Level Minneapolis Center
Sat 07:32:49 PM 42.8744 -97.6433 275° West 376 433 36,000  Level Minneapolis Center
Sat 07:33:50 PM 42.8833 -97.7847 275° West 376 433 36,000  Level Minneapolis Center
Sat 07:35:03 PM 42.8936 -97.9553 275° West 376 433 36,000  Level Minneapolis Center
Sat 07:36:04 PM 42.9014 -98.0969 274° West 376 433 36,000  Level Minneapolis Center
Sat 07:37:05 PM 42.9111 -98.2433 275° West 382 440 36,000  Level Minneapolis Center
Sat 07:38:06 PM 42.9192 -98.3861 274° West 380 437 36,000  Level Minneapolis Center
Sat 07:39:08 PM 42.9275 -98.5319 275° West 385 443 36,000  Level Minneapolis Center
Sat 07:40:09 PM 42.9364 -98.7056 274° West 383 441 36,000  Level Minneapolis Center
Sat 07:41:10 PM 42.9447 -98.8519 274° West 387 445 36,000  Level Minneapolis Center
Sat 07:42:11 PM 42.9514 -98.9758 274° West 379 436 36,000  Level Minneapolis Center
Sat 07:43:12 PM 42.9586 -99.1186 274° West 377 434 36,000 443 Level Minneapolis Center
Sat 07:44:13 PM 42.9667 -99.2886 274° West 375 432 36,900 689 Climbing Minneapolis Center
Sat 07:45:14 PM 42.9739 -99.4264 274° West 367 422 37,400 393 Climbing Minneapolis Center
Sat 07:46:15 PM 42.9808 -99.5672 274° West 372 428 37,700 295 Climbing Minneapolis Center
Sat 07:47:16 PM 42.9872 -99.7094 274° West 376 433 38,000 148 Climbing Minneapolis Center
Sat 07:48:17 PM 42.9933 -99.8539 273° West 378 435 38,000  Level Minneapolis Center
Sat 07:49:18 PM 43.0003 -100.0014 274° West 381 438 38,000  Level Minneapolis Center
Sat 07:50:20 PM 43.0192 -100.1475 280° West 386 444 38,000  Level Minneapolis Center
Sat 07:51:04 PM 43.0364 -100.2583 282° West 384 442 38,000  Level Denver Center
Sat 07:52:05 PM 43.0561 -100.4011 281° West 382 440 38,000  Level Denver Center
Sat 07:52:22 PM 43.0606 -100.4300 282° West 383 441 38,000  Level Minneapolis Center
Sat 07:53:23 PM 43.0806 -100.5756 281° West 384 442 38,000  Level Minneapolis Center
Sat 07:54:08 PM 43.0969 -100.6939 281° West 389 448 38,000  Level Denver Center
Sat 07:55:09 PM 43.1172 -100.8400 281° West 390 449 38,000  Level Denver Center
Sat 07:56:11 PM 43.1367 -100.9875 280° West 392 451 38,000  Level Denver Center
Sat 07:57:12 PM 43.1561 -101.1347 280° West 392 451 38,000  Level Denver Center
Sat 07:58:14 PM 43.1761 -101.2828 281° West 394 453 38,000  Level Denver Center
Sat 07:59:15 PM 43.1956 -101.4311 280° West 396 456 38,000  Level Denver Center
Sat 08:00:16 PM 43.2181 -101.6092 280° West 395 455 38,000  Level Denver Center
Sat 08:01:18 PM 43.2378 -101.7606 280° West 401 461 38,000  Level Denver Center
Sat 08:02:19 PM 43.2583 -101.9175 280° West 399 459 38,000  Level Denver Center
Sat 08:03:20 PM 43.2753 -102.0608 279° West 399 459 38,000  Level Denver Center
Sat 08:04:22 PM 43.2933 -102.2033 280° West 398 458 38,000  Level Denver Center
Sat 08:05:23 PM 43.3131 -102.3700 279° West 396 456 38,000  Level Denver Center
Sat 08:06:24 PM 43.3317 -102.5142 280° West 401 461 38,000  Level Denver Center
Sat 08:07:26 PM 43.3494 -102.6606 280° West 406 467 38,000  Level Denver Center
Sat 08:08:27 PM 43.3686 -102.8311 279° West 406 467 38,000  Level Denver Center
Sat 08:09:28 PM 43.3867 -102.9772 280° West 405 466 38,000  Level Denver Center
Sat 08:10:29 PM 43.4058 -103.1456 279° West 400 460 38,000  Level Denver Center
Sat 08:11:31 PM 43.4222 -103.2917 279° West 403 464 38,000  Level Denver Center
Sat 08:12:32 PM 43.4392 -103.4378 279° West 404 465 38,000  Level Denver Center
Sat 08:13:33 PM 43.4583 -103.6067 279° West 403 464 38,000  Level Denver Center
Sat 08:14:35 PM 43.4731 -103.7483 278° West 396 456 38,000  Level Denver Center
Sat 08:15:36 PM 43.4908 -103.9178 278° West 399 459 38,000  Level Denver Center
Sat 08:16:37 PM 43.5022 -104.0606 276° West 395 455 38,000  Level Denver Center
Sat 08:17:38 PM 43.5053 -104.2028 272° West 391 450 38,000  Level Denver Center
Sat 08:18:40 PM 43.5089 -104.3694 272° West 392 451 38,000  Level Denver Center
Sat 08:19:41 PM 43.5131 -104.5119 272° West 391 450 38,000  Level Denver Center
Sat 08:20:42 PM 43.5161 -104.6803 271° West 394 453 38,000  Level Denver Center
Sat 08:21:43 PM 43.5192 -104.8239 272° West 394 453 38,000  Level Denver Center
Sat 08:22:44 PM 43.5217 -104.9669 271° West 393 452 38,000  Level Denver Center
Sat 08:23:46 PM 43.5242 -105.1344 271° West 393 452 38,000  Level Denver Center
Sat 08:24:47 PM 43.5267 -105.2775 271° West 391 450 38,000  Level Denver Center
Sat 08:25:48 PM 43.5289 -105.4475 271° West 397 457 38,000  Level Denver Center
Sat 08:26:49 PM 43.5308 -105.5931 271° West 398 458 38,000  Level Denver Center
Sat 08:27:50 PM 43.5325 -105.7389 271° West 399 459 38,000  Level Denver Center
Sat 08:28:52 PM 43.5339 -105.9083 271° West 396 456 38,000  Level Denver Center
Sat 08:29:53 PM 43.5350 -106.0536 271° West 397 457 38,000  Level Denver Center
Sat 08:30:54 PM 43.5364 -106.2228 271° West 398 458 38,000  Level Denver Center
Sat 08:31:55 PM 43.5372 -106.3675 271° West 395 455 38,000  Level Denver Center
Sat 08:32:56 PM 43.5381 -106.5122 271° West 395 455 38,000  Level Denver Center
Sat 08:33:57 PM 43.5383 -106.6836 270° West 399 459 38,000  Level Denver Center
Sat 08:34:59 PM 43.5392 -106.8294 271° West 399 459 38,000  Level Denver Center
Sat 08:36:12 PM 43.5389 -107.0217 270° West 396 456 38,000  Level Denver Center
Sat 08:37:13 PM 43.5392 -107.1672 270° West 395 455 38,000  Level Denver Center
Sat 08:37:32 PM 43.5381 -107.2153 268° West 395 455 38,000  Level Salt Lake Center
Sat 08:38:33 PM 43.5381 -107.3636 270° West 400 460 38,000  Level Salt Lake Center
Sat 08:39:34 PM 43.5367 -107.5361 269° West 402 463 38,000  Level Salt Lake Center
Sat 08:40:35 PM 43.5356 -107.6789 269° West 395 455 38,000  Level Salt Lake Center
Sat 08:41:37 PM 43.5353 -107.8444 270° West 387 445 38,000  Level Salt Lake Center
Sat 08:42:38 PM 43.5336 -107.9889 269° West 391 450 38,000  Level Salt Lake Center
Sat 08:43:39 PM 43.5322 -108.1356 269° West 398 458 38,000  Level Salt Lake Center
Sat 08:44:40 PM 43.5308 -108.3056 269° West 398 458 38,000  Level Salt Lake Center
Sat 08:45:41 PM 43.5297 -108.4497 269° West 393 452 38,000  Level Salt Lake Center
Sat 08:46:42 PM 43.5281 -108.5939 269° West 393 452 38,000  Level Salt Lake Center
Sat 08:47:43 PM 43.5244 -108.7622 268° West 393 452 38,000  Level Salt Lake Center
Sat 08:48:44 PM 43.5222 -108.9092 269° West 400 460 38,000  Level Salt Lake Center
Sat 08:49:45 PM 43.5206 -109.0575 269° West 403 464 38,000  Level Salt Lake Center
Sat 08:50:46 PM 43.5167 -109.2289 268° West 400 460 38,000  Level Salt Lake Center
Sat 08:51:47 PM 43.5144 -109.3806 269° West 410 472 38,000  Level Salt Lake Center
Sat 08:52:48 PM 43.5097 -109.5494 268° West 407 468 38,000  Level Salt Lake Center
Sat 08:53:49 PM 43.5072 -109.6978 269° West 405 466 38,000  Level Salt Lake Center
Sat 08:54:50 PM 43.5025 -109.8556 268° West 403 464 38,000  Level Salt Lake Center
Sat 08:55:51 PM 43.4981 -110.0014 268° West 400 460 38,000  Level Salt Lake Center
Sat 08:56:52 PM 43.4633 -110.1644 254° West 399 459 38,000  Level Salt Lake Center
Sat 08:57:53 PM 43.4328 -110.3025 253° West 397 457 38,000  Level Salt Lake Center
Sat 08:58:54 PM 43.3989 -110.4461 252° West 409 471 38,000  Level Salt Lake Center
Sat 08:59:55 PM 43.3625 -110.6106 253° West 422 486 38,000  Level Salt Lake Center
Sat 09:00:56 PM 43.3272 -110.7600 252° West 427 491 38,000  Level Salt Lake Center
Sat 09:01:57 PM 43.2886 -110.9275 252° West 414 476 38,000  Level Salt Lake Center
Sat 09:02:58 PM 43.2553 -111.0739 253° West 418 481 38,000  Level Salt Lake Center
Sat 09:03:59 PM 43.2208 -111.2178 252° West 416 479 38,000  Level Salt Lake Center
Sat 09:05:00 PM 43.1811 -111.3833 252° West 410 472 38,000  Level Salt Lake Center
Sat 09:06:01 PM 43.1478 -111.5256 252° West 410 472 38,000  Level Salt Lake Center
Sat 09:07:02 PM 43.1133 -111.6636 251° West 401 461 38,000  Level Salt Lake Center
Sat 09:08:03 PM 43.0747 -111.8219 252° West 393 452 38,000  Level Salt Lake Center
Sat 09:09:04 PM 43.0422 -111.9592 252° West 394 453 38,000  Level Salt Lake Center
Sat 09:10:05 PM 43.0097 -112.0939 252° West 393 452 38,000  Level Salt Lake Center
Sat 09:15:47 PM 42.7720 -112.9060 252° West 402 463 38,000  Level FlightAware ADS-B
Sat 09:16:22 PM 42.7400 -112.9870 242° Southwest 401 461 38,000  Level FlightAware ADS-B
Sat 09:17:12 PM 42.6960 -113.1000 242° Southwest 399 459 38,000 -67 Level FlightAware ADS-B
Sat 09:17:52 PM 42.6610 -113.1900 242° Southwest 399 459 37,900 -525 Descending FlightAware ADS-B
Sat 09:18:32 PM 42.6260 -113.2790 242° Southwest 402 463 37,300 -988 Descending FlightAware ADS-B
Sat 09:19:17 PM 42.5860 -113.3800 242° Southwest 394 453 36,500 -988 Descending FlightAware ADS-B
Sat 09:19:57 PM 42.5510 -113.4660 241° Southwest 387 445 35,900 -918 Descending FlightAware ADS-B
Sat 09:20:42 PM 42.5130 -113.5630 242° Southwest 384 442 35,200 -988 Descending FlightAware ADS-B
Sat 09:21:22 PM 42.4790 -113.6480 242° Southwest 383 441 34,500 -900 Descending FlightAware ADS-B
Sat 09:22:02 PM 42.4460 -113.7320 242° Southwest 383 441 34,000 -353 Descending FlightAware ADS-B
Sat 09:22:47 PM 42.4080 -113.8270 242° Southwest 384 442 34,000  Level FlightAware ADS-B
Sat 09:23:27 PM 42.3730 -113.9130 241° Southwest 383 441 34,000  Level FlightAware ADS-B
Sat 09:24:07 PM 42.3390 -113.9960 241° Southwest 383 441 34,000  Level FlightAware ADS-B
Sat 09:24:52 PM 42.3000 -114.0920 241° Southwest 385 443 34,000  Level FlightAware ADS-B
Sat 09:25:32 PM 42.2650 -114.1780 241° Southwest 386 444 34,000  Level FlightAware ADS-B
Sat 09:26:17 PM 42.2260 -114.2740 241° Southwest 383 441 34,000  Level FlightAware ADS-B
Sat 09:26:57 PM 42.1920 -114.3570 241° Southwest 381 438 34,000  Level FlightAware ADS-B
Sat 09:27:37 PM 42.1580 -114.4410 241° Southwest 377 434 34,000  Level FlightAware ADS-B
Sat 09:28:22 PM 42.1210 -114.5300 241° Southwest 374 430 34,000  Level FlightAware ADS-B
Sat 09:29:02 PM 42.0870 -114.6110 241° Southwest 375 432 34,000  Level FlightAware ADS-B
Sat 09:29:42 PM 42.0530 -114.6960 242° Southwest 370 426 34,000  Level FlightAware ADS-B
Sat 09:30:22 PM 42.0220 -114.7700 241° Southwest 370 426 34,000  Level FlightAware ADS-B
Sat 09:31:02 PM 41.9940 -114.8390 241° Southwest 370 426 34,000  Level FlightAware ADS-B
Sat 09:31:52 PM 41.9580 -114.9250 241° Southwest 370 426 34,000  Level FlightAware ADS-B
Sat 09:32:32 PM 41.9300 -114.9930 241° Southwest 370 426 34,000  Level FlightAware ADS-B
Sat 09:33:12 PM 41.9020 -115.0610 241° Southwest 370 426 34,000  Level FlightAware ADS-B
Sat 09:33:52 PM 41.8740 -115.1300 241° Southwest 370 426 34,000  Level FlightAware ADS-B
Sat 09:34:32 PM 41.8450 -115.1980 240° Southwest 370 426 34,000  Level FlightAware ADS-B
Sat 09:35:22 PM 41.8100 -115.2830 241° Southwest 370 426 34,000  Level FlightAware ADS-B
Sat 09:36:02 PM 41.7820 -115.3520 241° Southwest 370 426 34,000  Level FlightAware ADS-B
Sat 09:36:42 PM 41.7540 -115.4200 241° Southwest 370 426 34,000  Level FlightAware ADS-B
Sat 09:37:22 PM 41.7260 -115.4880 241° Southwest 370 426 34,000  Level FlightAware ADS-B
Sat 09:38:02 PM 41.6970 -115.5560 240° Southwest 370 426 34,000  Level FlightAware ADS-B
Sat 09:38:52 PM 41.6620 -115.6420 241° Southwest 370 426 34,000  Level FlightAware ADS-B
Sat 09:39:32 PM 41.6340 -115.7100 241° Southwest 370 426 34,000  Level FlightAware ADS-B
Sat 09:40:24 PM 41.5319 -115.9289 241° Southwest 360 414 34,000  Level Oakland Center
Sat 09:41:36 PM 41.4622 -116.0719 237° Southwest 364 419 34,000  Level Salt Lake Center
Sat 09:42:37 PM 41.4081 -116.1786 236° Southwest 363 418 34,000  Level Salt Lake Center
Sat 09:43:38 PM 41.3514 -116.2889 236° Southwest 374 430 34,000  Level Salt Lake Center
Sat 09:44:39 PM 41.2856 -116.4147 235° Southwest 372 428 34,000  Level Salt Lake Center
Sat 09:45:40 PM 41.2294 -116.5244 236° Southwest 374 430 34,000  Level Salt Lake Center
Sat 09:46:41 PM 41.1628 -116.6542 236° Southwest 380 437 34,000  Level Salt Lake Center
Sat 09:47:42 PM 41.1042 -116.7672 235° Southwest 387 445 34,000  Level Salt Lake Center
Sat 09:48:43 PM 41.0442 -116.8806 235° Southwest 391 450 34,000  Level Salt Lake Center
Sat 09:49:44 PM 40.9747 -117.0119 235° Southwest 392 451 34,000  Level Salt Lake Center
Sat 09:50:45 PM 40.9144 -117.1258 235° Southwest 396 456 34,000  Level Salt Lake Center
Sat 09:51:46 PM 40.8533 -117.2408 235° Southwest 399 459 34,000  Level Salt Lake Center
Sat 09:52:47 PM 40.7817 -117.3750 235° Southwest 402 463 34,000  Level Salt Lake Center
Sat 09:53:48 PM 40.7206 -117.4900 235° Southwest 402 463 34,000  Level Salt Lake Center
Sat 09:54:49 PM 40.6478 -117.6244 235° Southwest 404 465 34,000  Level Salt Lake Center
Sat 09:55:38 PM 40.5942 -117.7186 233° Southwest 407 468 34,000  Level Oakland Center
Sat 09:56:39 PM 40.5203 -117.8278 228° Southwest 416 479 34,000  Level Oakland Center
Sat 09:57:40 PM 40.4436 -117.9386 228° Southwest 426 490 34,000  Level Oakland Center
Sat 09:58:40 PM 40.3539 -118.0697 228° Southwest 423 487 34,000  Level Oakland Center
Sat 09:59:41 PM 40.2750 -118.1864 228° Southwest 428 493 34,000 -541 Level Oakland Center
Sat 10:00:42 PM 40.1969 -118.3006 228° Southwest 425 489 32,900 -1,918 Descending Oakland Center
Sat 10:01:43 PM 40.1189 -118.4131 228° Southwest 418 481 30,100 -2,705 Descending Oakland Center
Sat 10:02:44 PM 40.0436 -118.5225 228° Southwest 409 471 27,400 -2,410 Descending Oakland Center
Sat 10:03:45 PM 39.9697 -118.6297 228° Southwest 401 461 25,200 -2,132 Descending Oakland Center
Sat 10:04:45 PM 39.8981 -118.7328 228° Southwest 389 448 23,100 -2,182 Descending Oakland Center
Sat 10:05:46 PM 39.8269 -118.8331 227° Southwest 379 436 20,800 -2,262 Descending Oakland Center
Sat 10:06:47 PM 39.7583 -118.9306 228° Southwest 369 425 18,500 -2,066 Descending Oakland Center
Sat 10:07:48 PM 39.6911 -119.0256 227° Southwest 362 417 16,600 -1,574 Descending Oakland Center
Sat 10:08:49 PM 39.6181 -119.1294 228° Southwest 331 381 15,300 -1,190 Descending Oakland Center
Sat 10:09:49 PM 39.5600 -119.2111 227° Southwest 313 360 14,200 -893 Descending Oakland Center
Sat 10:10:50 PM 39.5033 -119.2903 227° Southwest 305 351 13,500 -590 Descending Oakland Center
Sat 10:11:51 PM 39.4494 -119.3658 227° Southwest 292 336 13,000 -590 Descending Oakland Center
Sat 10:12:52 PM 39.3992 -119.4378 228° Southwest 277 319 12,300 -793 Descending Oakland Center
Sat 10:13:52 PM 39.3528 -119.5017 227° Southwest 260 299 11,400 -608 Descending Oakland Center
Sat 10:19:07 PM 39.3150 -119.7350 227° Southwest 166 191 8,500 -497 Descending FlightAware ADS-B
Sat 10:19:42 PM 39.3230 -119.7660 288° West 166 191 8,500  Level FlightAware ADS-B
Sat 10:20:12 PM 39.3280 -119.7900 285° West 166 191 8,500  Level FlightAware ADS-B
Sat 10:20:32 PM 39.3320 -119.8060 288° West 166 191 8,500 -1,129 Level FlightAware ADS-B
Sat 10:21:37 PM 39.3850 -119.7670 30° Northeast 182 209 6,900 -1,067 Descending FlightAware ADS-B
Sat 10:22:02 PM 39.4040 -119.7660 North 182 209 6,900 -800 Level FlightAware ADS-B
Sat 10:22:52 PM 39.4300 -119.7670 358° North 173 199 5,900 -1,200 Descending FlightAware ADS-B
Sat 10:23:02 PM 39.4380 -119.7670 360° North 171 197 5,700 -655 Descending FlightAware ADS-B
Sat 10:23:47 PM 39.4390 -119.7670 360° North 173 199 5,300 -533 Descending FlightAware ADS-B

Login

Don't have an account? Register now (free) for customized features, flight alerts, and more!